Time;durP1;ratioP1;P1;durP2;ratioP2;P2;SDS_P1;SDS_P2;PMS_P1;PMS_P2;Temp;Humidity;BMP_temperature;BMP_pressure;BME280_temperature;BME280_humidity;BME280_pressure;Samples;Min_cycle;Max_cycle;Signal;HPM_P1;HPM_P2
2023/11/23 00:01:16;;;;;;;12.45;9.05;;;;;;;2.39;100.00;98617.63;1225178;75;2935330;-67
2023/11/23 00:03:49;;;;;;;9.80;7.65;;;;;;;2.41;100.00;98614.53;1225244;75;2920783;-61
2023/11/23 00:06:21;;;;;;;9.20;7.30;;;;;;;2.33;100.00;98614.59;1225062;75;2931380;-62
2023/11/23 00:08:54;;;;;;;7.60;6.80;;;;;;;2.16;100.00;98609.28;1225787;75;2914669;-60
2023/11/23 00:11:29;;;;;;;10.90;9.80;;;;;;;2.00;100.00;98607.84;1225625;75;2925532;-61
2023/11/23 00:14:02;;;;;;;9.70;8.70;;;;;;;2.13;100.00;98600.81;1225117;75;2918182;-65
2023/11/23 00:16:34;;;;;;;9.60;8.60;;;;;;;2.13;100.00;98614.31;1224565;75;2916317;-64
2023/11/23 00:19:08;;;;;;;9.35;8.30;;;;;;;1.97;100.00;98610.56;1224706;75;2922452;-63
2023/11/23 00:21:41;;;;;;;11.60;10.40;;;;;;;2.09;100.00;98610.88;1225538;75;2917244;-63
2023/11/23 00:24:15;;;;;;;9.95;7.95;;;;;;;2.16;100.00;98614.69;1225086;75;2921346;-62
2023/11/23 00:26:51;;;;;;;10.80;9.70;;;;;;;1.90;100.00;98601.34;1224775;75;2915242;-62
2023/11/23 00:29:24;;;;;;;13.10;11.75;;;;;;;1.82;100.00;98604.47;1225470;75;2918798;-64
2023/11/23 00:31:57;;;;;;;13.30;11.80;;;;;;;1.76;100.00;98600.66;1224463;75;2934363;-64
2023/11/23 00:34:30;;;;;;;12.90;11.60;;;;;;;1.73;100.00;98588.69;1225660;75;2913543;-63
2023/11/23 00:37:02;;;;;;;11.55;10.45;;;;;;;1.91;100.00;98589.38;1224774;75;2918792;-61
2023/11/23 00:39:35;;;;;;;12.35;11.05;;;;;;;1.87;100.00;98587.84;1224199;75;2919376;-65
2023/11/23 00:42:11;;;;;;;11.55;10.35;;;;;;;1.87;100.00;98582.44;1224929;75;2921277;-61
2023/11/23 00:44:43;;;;;;;15.10;13.50;;;;;;;1.63;100.00;98590.28;1224987;75;2923747;-64
2023/11/23 00:47:16;;;;;;;15.90;14.25;;;;;;;1.76;100.00;98597.94;1224498;75;2922850;-63
2023/11/23 00:49:49;;;;;;;15.70;14.10;;;;;;;1.80;100.00;98602.16;1225350;75;2926446;-62
2023/11/23 00:52:21;;;;;;;16.10;13.60;;;;;;;1.83;100.00;98604.09;1223791;75;2916468;-62
2023/11/23 00:54:54;;;;;;;15.15;13.55;;;;;;;1.87;100.00;98604.81;1224485;75;2918736;-64
2023/11/23 00:57:30;;;;;;;15.50;13.85;;;;;;;1.82;100.00;98601.75;1224322;75;2924854;-62
2023/11/23 01:00:05;;;;;;;16.05;14.50;;;;;;;1.84;100.00;98602.16;1224723;75;2918704;-64
2023/11/23 01:02:38;;;;;;;17.85;15.70;;;;;;;1.81;100.00;98602.94;1224004;75;2920884;-61
2023/11/23 01:05:11;;;;;;;17.25;15.55;;;;;;;1.72;100.00;98608.00;1224046;75;2913857;-62
2023/11/23 01:07:45;;;;;;;18.20;16.35;;;;;;;1.71;100.00;98599.13;1224198;75;2918138;-63
2023/11/23 01:10:18;;;;;;;19.75;17.75;;;;;;;1.75;100.00;98596.41;1224192;75;2918046;-65
2023/11/23 01:12:54;;;;;;;15.30;13.70;;;;;;;1.81;100.00;98597.53;1224549;75;2918201;-63
2023/11/23 01:15:27;;;;;;;19.05;17.15;;;;;;;1.72;100.00;98600.66;1224506;75;2916246;-61
2023/11/23 01:17:59;;;;;;;19.00;17.00;;;;;;;1.70;100.00;98600.28;1222043;75;2946802;-63
2023/11/23 01:20:32;;;;;;;15.35;13.75;;;;;;;1.99;100.00;98597.44;1223974;75;2920556;-62
2023/11/23 01:23:05;;;;;;;16.30;14.60;;;;;;;1.84;100.00;98602.16;1223904;75;2917580;-65
2023/11/23 01:25:38;;;;;;;15.95;14.30;;;;;;;1.88;100.00;98600.19;1223993;75;2919604;-62
2023/11/23 01:28:13;;;;;;;17.95;16.05;;;;;;;1.73;100.00;98604.13;1224271;75;2917010;-64
2023/11/23 01:30:46;;;;;;;18.40;16.35;;;;;;;1.67;100.00;98596.44;1223645;75;2921890;-62
2023/11/23 01:33:19;;;;;;;20.35;18.30;;;;;;;1.67;100.00;98592.97;1222483;75;2922188;-60
2023/11/23 01:35:52;;;;;;;20.60;18.35;;;;;;;1.57;100.00;98597.25;1223516;75;2915158;-63
2023/11/23 01:38:26;;;;;;;21.35;19.20;;;;;;;1.56;100.00;98592.25;1225019;75;2920631;-65
2023/11/23 01:40:59;;;;;;;22.65;20.30;;;;;;;1.55;100.00;98593.41;1224535;75;2929263;-63
2023/11/23 01:43:34;;;;;;;20.95;18.85;;;;;;;1.51;100.00;98596.09;1225176;75;2920302;-64
2023/11/23 01:46:07;;;;;;;19.95;17.95;;;;;;;1.58;100.00;98598.78;1225317;75;2918953;-64
2023/11/23 01:48:39;;;;;;;21.75;19.45;;;;;;;1.40;100.00;98588.06;1224698;75;2913571;-63
2023/11/23 01:51:15;;;;;;;20.85;18.65;;;;;;;1.64;100.00;98588.38;1224622;75;2918918;-62
2023/11/23 01:53:47;;;;;;;19.35;17.35;;;;;;;1.78;100.00;98590.22;1224421;75;2919918;-63
2023/11/23 01:56:21;;;;;;;19.10;17.05;;;;;;;1.62;100.00;98577.19;1225103;75;2920498;-63
2023/11/23 01:58:57;;;;;;;19.90;17.90;;;;;;;1.64;100.00;98578.34;1224606;75;2919265;-63
2023/11/23 02:01:29;;;;;;;19.60;17.70;;;;;;;1.52;100.00;98576.06;1224798;75;2915806;-64
2023/11/23 02:04:02;;;;;;;22.45;20.15;;;;;;;1.47;100.00;98569.16;1224760;75;2921602;-64
2023/11/23 02:06:36;;;;;;;22.30;20.00;;;;;;;1.55;100.00;98564.50;1224786;75;2917007;-60
2023/11/23 02:09:09;;;;;;;23.55;21.05;;;;;;;1.39;100.00;98554.13;1225590;75;2917131;-64
2023/11/23 02:11:42;;;;;;;23.50;21.05;;;;;;;1.39;100.00;98556.06;1223780;75;2928410;-64
2023/11/23 02:14:18;;;;;;;23.55;21.15;;;;;;;1.47;100.00;98557.59;1224729;75;2926221;-61
2023/11/23 02:16:53;;;;;;;20.70;18.55;;;;;;;1.59;100.00;98549.06;1223964;75;2925968;-64
2023/11/23 02:19:25;;;;;;;21.85;19.55;;;;;;;1.61;100.00;98557.53;1224058;75;2921104;-61
2023/11/23 02:21:58;;;;;;;21.20;19.05;;;;;;;1.57;100.00;98558.72;1224351;75;2919710;-65
2023/11/23 02:24:33;;;;;;;26.00;22.55;;;;;;;1.30;100.00;98561.13;1223910;75;2923415;-63
2023/11/23 02:27:06;;;;;;;21.95;19.65;;;;;;;1.35;100.00;98564.19;1224453;75;2923533;-64
2023/11/23 02:29:40;;;;;;;25.00;22.00;;;;;;;1.27;100.00;98563.47;1225094;75;2923072;-63
2023/11/23 02:32:13;;;;;;;22.60;20.30;;;;;;;1.45;100.00;98565.31;1225065;75;2923073;-62
2023/11/23 02:34:46;;;;;;;24.80;22.20;;;;;;;1.32;100.00;98561.50;1224269;75;2923153;-64
2023/11/23 02:37:19;;;;;;;23.60;21.10;;;;;;;1.39;100.00;98562.22;1224072;75;2920349;-65
2023/11/23 02:39:54;;;;;;;23.70;21.30;;;;;;;1.41;100.00;98561.84;1224792;75;2919099;-64
2023/11/23 02:42:26;;;;;;;24.05;21.60;;;;;;;1.41;100.00;98559.91;1224428;75;2925958;-62
2023/11/23 02:44:59;;;;;;;25.35;22.75;;;;;;;1.34;100.00;98564.56;1224888;75;2919958;-62
2023/11/23 02:47:32;;;;;;;26.65;23.95;;;;;;;1.19;100.00;98563.84;1225217;75;2911477;-63
2023/11/23 02:50:05;;;;;;;24.95;21.55;;;;;;;1.22;100.00;98547.66;1223935;75;2916653;-63
2023/11/23 02:52:37;;;;;;;26.70;23.90;;;;;;;1.13;100.00;98547.31;1225179;75;2917763;-61
2023/11/23 02:55:13;;;;;;;25.70;23.05;;;;;;;1.30;100.00;98542.22;1225699;75;2915573;-63
2023/11/23 02:57:46;;;;;;;24.90;21.90;;;;;;;1.26;100.00;98548.41;1224850;75;2935043;-62
2023/11/23 03:00:20;;;;;;;25.10;22.40;;;;;;;1.21;100.00;98537.28;1224569;75;2924801;-63
2023/11/23 03:02:54;;;;;;;27.80;23.45;;;;;;;1.29;100.00;98530.69;1224831;75;2918587;-63
2023/11/23 03:05:27;;;;;;;26.45;23.55;;;;;;;1.27;100.00;98530.28;1224737;75;2931976;-60
2023/11/23 03:08:00;;;;;;;26.35;22.40;;;;;;;1.35;100.00;98534.53;1225286;75;2913518;-63
2023/11/23 03:10:36;;;;;;;27.85;23.50;;;;;;;1.24;100.00;98526.44;1225414;75;2917328;-64
2023/11/23 03:13:10;;;;;;;22.95;20.65;;;;;;;1.34;100.00;98524.88;1224288;75;2921310;-62
2023/11/23 03:15:43;;;;;;;25.05;22.40;;;;;;;1.28;100.00;98523.75;1224718;75;2929785;-62
2023/11/23 03:18:15;;;;;;;25.25;22.55;;;;;;;1.30;100.00;98520.66;1225397;75;2921502;-62
2023/11/23 03:20:48;;;;;;;24.45;21.15;;;;;;;1.36;100.00;98519.84;1225065;75;2919707;-63
2023/11/23 03:23:21;;;;;;;22.60;19.60;;;;;;;1.40;100.00;98509.06;1224868;75;2922532;-66
2023/11/23 03:25:56;;;;;;;23.80;21.30;;;;;;;1.46;100.00;98518.28;1224926;75;2922367;-65
2023/11/23 03:28:29;;;;;;;25.50;20.90;;;;;;;1.28;100.00;98515.66;1224478;75;2931014;-66
2023/11/23 03:31:02;;;;;;;27.30;24.05;;;;;;;1.22;100.00;98509.13;1224527;75;2917334;-64
2023/11/23 03:33:35;;;;;;;22.40;18.95;;;;;;;1.55;100.00;98505.13;1224258;75;2917274;-63
2023/11/23 03:36:08;;;;;;;23.95;21.45;;;;;;;1.43;100.00;98505.56;1224626;75;2927762;-63
2023/11/23 03:38:41;;;;;;;21.85;18.95;;;;;;;1.44;100.00;98509.78;1224892;75;2921211;-63
2023/11/23 03:41:17;;;;;;;20.15;18.05;;;;;;;1.45;100.00;98511.34;1224637;75;2919060;-61
2023/11/23 03:43:49;;;;;;;24.45;21.55;;;;;;;1.45;100.00;98514.81;1225558;75;2917147;-63
2023/11/23 03:46:22;;;;;;;24.85;22.25;;;;;;;1.39;100.00;98521.00;1225109;75;2953432;-64
2023/11/23 03:48:55;;;;;;;22.65;20.25;;;;;;;1.63;100.00;98532.84;1224439;75;2926459;-63
2023/11/23 03:51:28;;;;;;;19.85;16.50;;;;;;;1.65;100.00;98536.69;1225200;75;2921758;-63
2023/11/23 03:54:02;;;;;;;17.25;15.45;;;;;;;1.81;100.00;98538.16;1225504;75;2908881;-63
2023/11/23 03:56:38;;;;;;;16.15;13.85;;;;;;;1.74;100.00;98532.78;1225089;75;2922511;-63
2023/11/23 03:59:11;;;;;;;20.80;18.70;;;;;;;1.54;100.00;98527.88;1225802;75;2917112;-62
2023/11/23 04:01:48;;;;;;;23.20;20.75;;;;;;;1.62;100.00;98523.97;1224135;75;2919919;-65
2023/11/23 04:04:21;;;;;;;17.90;16.00;;;;;;;1.91;100.00;98523.81;1224494;75;2914321;-61
2023/11/23 04:06:53;;;;;;;17.00;15.25;;;;;;;1.82;100.00;98528.88;1223483;75;2916791;-64
2023/11/23 04:09:26;;;;;;;14.95;13.50;;;;;;;1.99;100.00;98533.38;1223925;75;2926990;-62
2023/11/23 04:12:01;;;;;;;14.10;12.60;;;;;;;1.85;100.00;98528.06;1224397;75;2917634;-63
2023/11/23 04:14:34;;;;;;;16.90;15.10;;;;;;;1.73;100.00;98529.31;1224176;75;2919326;-64
2023/11/23 04:17:07;;;;;;;14.80;13.30;;;;;;;2.04;100.00;98529.50;1224157;75;2921142;-63
2023/11/23 04:19:39;;;;;;;14.50;13.00;;;;;;;1.87;100.00;98523.81;1223549;75;2923399;-62
2023/11/23 04:22:12;;;;;;;12.50;11.20;;;;;;;2.20;100.00;98542.50;1224791;75;2917763;-62
2023/11/23 04:24:47;;;;;;;13.25;11.95;;;;;;;2.15;100.00;98527.50;1223805;75;2926358;-63
2023/11/23 04:27:24;;;;;;;10.60;9.55;;;;;;;2.11;100.00;98530.22;1224393;75;2930496;-63
2023/11/23 04:29:56;;;;;;;11.75;10.55;;;;;;;2.09;100.00;98535.25;1224775;75;2921867;-63
2023/11/23 04:32:29;;;;;;;11.30;10.20;;;;;;;2.10;100.00;98534.09;1225130;75;2924726;-66
2023/11/23 04:35:02;;;;;;;12.00;10.80;;;;;;;2.01;100.00;98535.69;1225503;75;2920545;-65
2023/11/23 04:37:34;;;;;;;13.20;11.85;;;;;;;2.07;100.00;98536.81;1224770;75;2931612;-62
2023/11/23 04:40:10;;;;;;;11.30;10.10;;;;;;;2.26;100.00;98530.09;1224661;75;2925731;-64
2023/11/23 04:42:46;;;;;;;9.95;8.95;;;;;;;2.30;100.00;98528.16;1224969;75;2915131;-62
2023/11/23 04:45:19;;;;;;;10.55;9.05;;;;;;;2.33;100.00;98521.94;1224870;75;2921392;-63
2023/11/23 04:47:52;;;;;;;9.95;8.40;;;;;;;2.40;100.00;98513.00;1225355;75;2917856;-64
2023/11/23 04:50:25;;;;;;;9.25;8.35;;;;;;;2.31;100.00;98511.56;1223786;75;2922717;-64
2023/11/23 04:52:58;;;;;;;11.80;10.20;;;;;;;2.25;100.00;98517.78;1225395;75;2908163;-62
2023/11/23 04:55:30;;;;;;;9.95;8.95;;;;;;;2.34;100.00;98523.50;1225129;75;2923509;-63
2023/11/23 04:58:07;;;;;;;11.85;10.70;;;;;;;2.07;100.00;98517.91;1225962;75;2914560;-62
2023/11/23 05:00:39;;;;;;;15.80;14.10;;;;;;;1.91;100.00;98515.72;1225168;75;2935989;-63
2023/11/23 05:03:12;;;;;;;19.30;17.10;;;;;;;1.78;100.00;98517.31;1225057;75;2920936;-63
2023/11/23 05:05:45;;;;;;;17.55;15.75;;;;;;;1.88;100.00;98506.47;1223975;75;2931453;-65
2023/11/23 05:08:17;;;;;;;22.80;20.45;;;;;;;1.57;100.00;98510.13;1224139;75;2934913;-65
2023/11/23 05:10:50;;;;;;;23.40;21.00;;;;;;;1.61;100.00;98513.56;1224893;75;2925815;-63
2023/11/23 05:13:25;;;;;;;22.10;19.75;;;;;;;1.58;100.00;98514.34;1224229;75;2932528;-62
2023/11/23 05:15:58;;;;;;;20.35;18.20;;;;;;;1.76;100.00;98527.78;1223980;75;2940443;-64
2023/11/23 05:18:30;;;;;;;19.85;17.75;;;;;;;1.65;100.00;98522.41;1223899;75;2923997;-66
2023/11/23 05:21:04;;;;;;;24.85;22.25;;;;;;;1.51;100.00;98525.94;1224238;75;2918709;-64
2023/11/23 05:23:36;;;;;;;23.95;21.35;;;;;;;1.59;100.00;98530.16;1223164;75;2925607;-64
2023/11/23 05:26:11;;;;;;;25.10;22.40;;;;;;;1.50;100.00;98540.63;1223848;75;2927450;-65
2023/11/23 05:28:47;;;;;;;25.75;22.85;;;;;;;1.43;100.00;98544.09;1222710;75;2927352;-64
2023/11/23 05:31:20;;;;;;;26.90;24.05;;;;;;;1.31;100.00;98533.00;1223629;75;2929398;-63
2023/11/23 05:33:52;;;;;;;25.15;22.55;;;;;;;1.39;100.00;98534.50;1223461;75;2926687;-64
2023/11/23 05:36:25;;;;;;;28.15;25.15;;;;;;;1.28;100.00;98539.94;1223623;75;2923041;-63
2023/11/23 05:38:57;;;;;;;28.30;25.25;;;;;;;1.35;100.00;98539.13;1223009;75;2928390;-64
2023/11/23 05:41:32;;;;;;;25.95;23.15;;;;;;;1.39;100.00;98539.88;1224377;75;2921653;-64
2023/11/23 05:44:09;;;;;;;29.95;26.75;;;;;;;1.20;100.00;98541.91;1222978;75;2925328;-64
2023/11/23 05:46:41;;;;;;;27.55;24.55;;;;;;;1.25;100.00;98541.50;1223391;75;2925169;-62
2023/11/23 05:49:14;;;;;;;29.60;26.10;;;;;;;1.14;100.00;98534.59;1222836;75;2920212;-64
2023/11/23 05:51:47;;;;;;;26.45;23.75;;;;;;;1.29;100.00;98536.06;1224136;75;2919491;-63
2023/11/23 05:54:20;;;;;;;30.15;24.10;;;;;;;1.13;100.00;98533.84;1222816;75;2925996;-62
2023/11/23 05:56:52;;;;;;;31.05;27.75;;;;;;;1.20;100.00;98536.50;1224573;75;2920864;-62
2023/11/23 05:59:28;;;;;;;27.70;23.15;;;;;;;1.33;100.00;98541.47;1224067;75;2923603;-62
2023/11/23 06:02:05;;;;;;;26.20;21.45;;;;;;;1.31;100.00;98533.00;1224367;75;2919842;-65
2023/11/23 06:04:39;;;;;;;23.75;20.70;;;;;;;1.36;100.00;98529.88;1224664;75;2925587;-63
2023/11/23 06:07:12;;;;;;;24.50;22.00;;;;;;;1.38;100.00;98533.72;1224088;75;2921670;-63
2023/11/23 06:09:46;;;;;;;19.35;16.65;;;;;;;1.55;100.00;98540.19;1223315;75;2932168;-63
2023/11/23 06:12:18;;;;;;;22.95;20.40;;;;;;;1.31;100.00;98533.00;1223907;75;2920163;-63
2023/11/23 06:14:53;;;;;;;27.10;22.40;;;;;;;1.30;100.00;98545.72;1224212;75;2923672;-65
2023/11/23 06:17:26;;;;;;;28.15;23.65;;;;;;;1.24;100.00;98539.19;1223391;75;2941110;-64
2023/11/23 06:19:59;;;;;;;25.95;23.15;;;;;;;1.47;100.00;98539.47;1223273;75;2931092;-60
2023/11/23 06:22:31;;;;;;;28.20;25.20;;;;;;;1.17;100.00;98539.97;1223924;75;2931556;-62
2023/11/23 06:25:04;;;;;;;28.25;25.20;;;;;;;1.24;100.00;98541.88;1223542;75;2928042;-62
2023/11/23 06:27:37;;;;;;;29.70;26.50;;;;;;;1.34;100.00;98535.66;1222948;75;2924723;-62
2023/11/23 06:30:14;;;;;;;32.65;29.25;;;;;;;1.18;100.00;98529.94;1224083;75;2917446;-64
2023/11/23 06:32:47;;;;;;;31.15;25.05;;;;;;;1.29;100.00;98519.88;1223475;75;2923822;-64
2023/11/23 06:35:20;;;;;;;24.95;22.25;;;;;;;1.45;100.00;98530.22;1224131;75;2923593;-65
2023/11/23 06:37:52;;;;;;;30.25;26.95;;;;;;;1.16;100.00;98533.03;1224257;75;2922559;-63
2023/11/23 06:40:25;;;;;;;30.75;25.35;;;;;;;1.15;100.00;98534.19;1223888;75;2927497;-63
2023/11/23 06:42:58;;;;;;;28.85;22.60;;;;;;;1.52;100.00;98521.34;1223315;75;2928566;-65
2023/11/23 06:45:33;;;;;;;29.15;25.80;;;;;;;1.25;100.00;98527.22;1222905;75;2924401;-65
2023/11/23 06:48:06;;;;;;;31.15;26.85;;;;;;;1.30;100.00;98518.75;1223315;75;2923399;-64
2023/11/23 06:50:39;;;;;;;33.35;29.10;;;;;;;1.27;100.00;98519.50;1223503;75;2930090;-62
2023/11/23 06:53:11;;;;;;;31.25;25.50;;;;;;;1.35;100.00;98523.72;1224225;75;2918093;-64
2023/11/23 06:55:44;;;;;;;26.80;21.85;;;;;;;1.50;100.00;98508.25;1222772;75;2948141;-64
2023/11/23 06:58:17;;;;;;;33.05;26.95;;;;;;;1.24;100.00;98507.56;1223042;75;2921751;-64
2023/11/23 07:00:53;;;;;;;31.00;25.65;;;;;;;1.47;100.00;98503.63;1223365;75;2959859;-63
2023/11/23 07:03:26;;;;;;;28.90;25.50;;;;;;;1.44;100.00;98515.19;1223390;75;2928443;-63
2023/11/23 07:05:58;;;;;;;32.35;26.20;;;;;;;1.36;100.00;98511.00;1223999;67;2928015;-64
2023/11/23 07:08:31;;;;;;;30.30;27.00;;;;;;;1.46;100.00;98515.56;1214088;75;2919688;-62
2023/11/23 07:11:04;;;;;;;29.85;26.65;;;;;;;1.51;100.00;98528.66;1220054;75;2941002;-62
2023/11/23 07:13:38;;;;;;;30.95;25.55;;;;;;;1.57;100.00;98510.91;1222410;75;2926935;-60
2023/11/23 07:16:14;;;;;;;31.40;27.60;;;;;;;1.56;100.00;98512.03;1222857;75;2920149;-63
2023/11/23 07:18:46;;;;;;;32.05;25.20;;;;;;;1.64;100.00;98515.50;1222944;75;2926687;-63
2023/11/23 07:21:19;;;;;;;34.40;26.65;;;;;;;1.45;100.00;98506.72;1223082;75;2930952;-64
2023/11/23 07:23:51;;;;;;;38.60;33.05;;;;;;;1.40;100.00;98503.66;1224033;75;2947685;-64
2023/11/23 07:26:24;;;;;;;32.30;28.25;;;;;;;1.69;100.00;98510.44;1221075;75;2999957;-64
2023/11/23 07:28:57;;;;;;;28.80;25.80;;;;;;;1.62;100.00;98509.72;1220251;75;2921379;-64
2023/11/23 07:31:32;;;;;;;30.75;27.45;;;;;;;1.72;100.00;98497.31;1224462;75;2852380;-66
2023/11/23 07:34:06;;;;;;;28.40;25.40;;;;;;;1.90;100.00;98514.94;1222204;75;2851313;-65
2023/11/23 07:36:40;;;;;;;32.10;27.95;;;;;;;1.65;100.00;98506.22;1223918;75;2926761;-62
2023/11/23 07:39:13;;;;;;;37.10;29.55;;;;;;;1.78;100.00;98509.22;1223225;75;2916284;-64
2023/11/23 07:41:46;;;;;;;31.60;28.20;;;;;;;1.56;100.00;98503.94;1223585;75;2937205;-64
2023/11/23 07:44:20;;;;;;;32.50;29.00;;;;;;;1.58;100.00;98503.56;1222991;75;2919549;-66
2023/11/23 07:46:56;;;;;;;33.20;28.95;;;;;;;1.69;100.00;98504.28;1223010;75;2932257;-62
2023/11/23 07:49:29;;;;;;;33.55;29.70;;;;;;;1.58;100.00;98511.66;1222861;75;2931166;-63
2023/11/23 07:52:02;;;;;;;31.40;27.50;;;;;;;1.90;100.00;98511.47;1223618;75;2932424;-66
2023/11/23 07:54:35;;;;;;;36.20;29.30;;;;;;;1.57;100.00;98497.41;1218992;75;2929570;-66
2023/11/23 07:57:08;;;;;;;33.10;29.50;;;;;;;1.86;100.00;98487.19;1220121;75;2940273;-66
2023/11/23 07:59:41;;;;;;;36.45;29.60;;;;;;;1.91;100.00;98488.72;1224107;75;2927919;-64
2023/11/23 08:02:16;;;;;;;32.15;28.45;;;;;;;1.96;100.00;98490.22;1224350;75;2920888;-64
2023/11/23 08:04:49;;;;;;;33.95;29.55;;;;;;;1.96;100.00;98484.81;1182240;75;5918204;-59
2023/11/23 08:07:21;;;;;;;36.55;32.55;;;;;;;2.02;100.00;98473.19;1224804;75;2922062;-62
2023/11/23 08:09:55;;;;;;;39.75;34.80;;;;;;;2.37;100.00;98481.41;1223695;75;2930549;-63
2023/11/23 08:12:28;;;;;;;32.55;28.95;;;;;;;2.17;100.00;98462.28;1224124;75;2928065;-62
2023/11/23 08:15:01;;;;;;;32.85;29.25;;;;;;;2.24;100.00;98456.81;1225348;75;2919970;-64
2023/11/23 08:17:37;;;;;;;33.80;29.35;;;;;;;2.42;100.00;98459.34;1224054;75;2923418;-65
2023/11/23 08:20:13;;;;;;;32.05;28.55;;;;;;;2.55;100.00;98455.75;1224441;75;2920521;-61
2023/11/23 08:22:46;;;;;;;34.00;30.40;;;;;;;2.47;100.00;98464.31;1224953;75;2926545;-63
2023/11/23 08:25:19;;;;;;;34.45;30.70;;;;;;;2.43;100.00;98448.16;1224587;75;2922861;-64
2023/11/23 08:27:51;;;;;;;38.50;33.00;;;;;;;2.43;100.00;98445.44;1224975;75;2922860;-63
2023/11/23 08:30:24;;;;;;;37.20;32.30;;;;;;;2.57;100.00;98452.63;1223516;75;2924594;-63
2023/11/23 08:33:00;;;;;;;35.65;31.05;;;;;;;2.54;100.00;98448.78;1224236;75;2920224;-65
2023/11/23 08:35:32;;;;;;;30.85;26.90;;;;;;;2.76;100.00;98443.91;1223976;75;2916792;-66
2023/11/23 08:38:05;;;;;;;29.20;25.90;;;;;;;2.98;100.00;98452.56;1223687;75;2923635;-64
2023/11/23 08:40:41;;;;;;;30.05;26.35;;;;;;;2.74;100.00;98440.06;1224324;75;2929721;-65
2023/11/23 08:43:14;;;;;;;27.05;23.85;;;;;;;3.18;100.00;98436.47;1224551;75;2917703;-62
2023/11/23 08:45:46;;;;;;;23.80;21.30;;;;;;;3.40;100.00;98439.66;1224009;75;2924774;-64
2023/11/23 08:48:23;;;;;;;22.10;19.80;;;;;;;3.50;100.00;98437.19;1223437;75;2920925;-66
2023/11/23 08:50:55;;;;;;;26.65;23.85;;;;;;;3.00;100.00;98441.31;1224315;75;2928355;-67
2023/11/23 08:53:28;;;;;;;23.30;20.75;;;;;;;3.13;100.00;98436.94;1223357;75;2929400;-62
2023/11/23 08:56:00;;;;;;;24.05;21.55;;;;;;;3.27;100.00;98437.91;1225163;75;2917937;-62
2023/11/23 08:58:33;;;;;;;23.65;21.15;;;;;;;3.12;100.00;98435.38;1222181;75;2927674;-63
2023/11/23 09:01:06;;;;;;;20.30;18.20;;;;;;;3.24;100.00;98430.59;1222004;75;2936170;-61
2023/11/23 09:03:41;;;;;;;18.10;16.20;;;;;;;3.50;100.00;98427.13;1222036;75;2926933;-64
2023/11/23 09:06:14;;;;;;;21.25;18.95;;;;;;;3.26;100.00;98425.56;1222812;75;2922443;-63
2023/11/23 09:08:46;;;;;;;23.75;20.25;;;;;;;3.47;100.00;98419.84;1222673;75;2932101;-66
2023/11/23 09:11:19;;;;;;;22.15;19.75;;;;;;;3.60;100.00;98414.63;1222890;75;2924790;-62
2023/11/23 09:13:52;;;;;;;19.75;17.65;;;;;;;4.01;100.00;98416.28;1223057;75;2928713;-64
2023/11/23 09:16:26;;;;;;;23.25;19.85;;;;;;;4.20;100.00;98421.00;1223456;75;2926782;-62
2023/11/23 09:19:01;;;;;;;21.60;19.15;;;;;;;4.22;100.00;98415.94;1222955;75;2931069;-62
2023/11/23 09:21:34;;;;;;;19.70;17.60;;;;;;;4.59;100.00;98408.66;1224634;75;2926459;-64
2023/11/23 09:24:10;;;;;;;20.75;18.55;;;;;;;4.47;100.00;98412.00;1223981;75;2923802;-64
2023/11/23 09:26:42;;;;;;;22.10;19.80;;;;;;;4.38;100.00;98407.16;1224587;75;2926578;-62
2023/11/23 09:29:15;;;;;;;19.95;17.25;;;;;;;4.27;100.00;98403.84;1223719;75;2924591;-63
2023/11/23 09:31:47;;;;;;;19.00;17.00;;;;;;;4.28;100.00;98413.50;1223760;75;2918402;-63
2023/11/23 09:34:23;;;;;;;16.95;15.15;;;;;;;4.46;100.00;98403.09;1223395;75;2921185;-63
2023/11/23 09:36:56;;;;;;;18.80;16.65;;;;;;;3.97;100.00;98396.63;1220067;75;2927956;-62
2023/11/23 09:39:28;;;;;;;21.95;19.65;;;;;;;3.37;100.00;98399.13;1223180;75;2930923;-64
2023/11/23 09:42:03;;;;;;;21.20;19.00;;;;;;;4.08;100.00;98393.75;1224408;75;2920569;-60
2023/11/23 09:44:38;;;;;;;20.50;18.30;;;;;;;4.64;100.00;98383.81;1223915;75;2930352;-63
2023/11/23 09:47:12;;;;;;;30.10;25.90;;;;;;;4.66;100.00;98386.84;1223712;75;2925794;-61
2023/11/23 09:49:47;;;;;;;24.55;20.30;;;;;;;5.00;100.00;98368.72;1224450;75;2924743;-62
2023/11/23 09:52:20;;;;;;;20.45;18.05;;;;;;;5.30;99.15;98365.75;1224524;75;2916012;-64
2023/11/23 09:54:56;;;;;;;26.90;22.85;;;;;;;5.82;96.35;98350.56;1224601;75;2922097;-63
2023/11/23 09:57:29;;;;;;;22.20;19.80;;;;;;;4.98;97.98;98358.31;1222481;75;2925936;-64
2023/11/23 10:00:05;;;;;;;25.40;22.05;;;;;;;5.09;97.98;98361.53;1224976;75;2918861;-63
2023/11/23 10:02:39;;;;;;;21.05;18.30;;;;;;;5.58;96.65;98358.13;1224249;75;2929110;-62
2023/11/23 10:05:17;;;;;;;18.20;15.65;;;;;;;6.02;89.42;98347.75;1224094;75;2926365;-63
2023/11/23 10:07:52;;;;;;;17.90;15.50;;;;;;;6.56;87.53;98359.91;1224554;75;2940234;-62
2023/11/23 10:10:24;;;;;;;16.05;14.35;;;;;;;6.68;86.95;98358.41;1223578;75;2922921;-63
2023/11/23 10:12:58;;;;;;;17.20;15.30;;;;;;;6.86;83.25;98355.22;1223678;75;2923159;-65
2023/11/23 10:15:32;;;;;;;16.65;13.45;;;;;;;7.51;80.92;98343.13;1224085;75;2930979;-64
2023/11/23 10:18:06;;;;;;;15.95;13.20;;;;;;;7.14;81.19;98348.13;1221867;75;3077222;-62
2023/11/23 10:20:46;;;;;;;15.75;13.15;;;;;;;7.97;78.71;98347.06;1224544;75;2920839;-64
2023/11/23 10:23:19;;;;;;;19.00;13.65;;;;;;;8.81;75.94;98343.75;1224207;75;2921201;-62
2023/11/23 10:25:54;;;;;;;17.65;14.05;;;;;;;7.87;76.37;98334.56;1224791;75;2919989;-65
2023/11/23 10:28:27;;;;;;;16.35;13.35;;;;;;;8.20;75.62;98334.22;1224080;75;2925029;-63
2023/11/23 10:31:00;;;;;;;19.75;13.25;;;;;;;7.99;73.63;98325.56;1224165;75;2931895;-64
2023/11/23 10:33:33;;;;;;;15.60;12.90;;;;;;;8.84;73.35;98315.56;1223819;75;2923888;-63
2023/11/23 10:36:11;;;;;;;15.15;12.60;;;;;;;9.89;68.76;98309.50;1223341;75;2918454;-64
2023/11/23 10:38:44;;;;;;;13.95;10.60;;;;;;;10.73;65.61;98300.75;1223256;75;2934040;-63
2023/11/23 10:41:20;;;;;;;15.20;12.00;;;;;;;11.14;63.90;98295.00;1223465;75;2917810;-64
2023/11/23 10:43:53;;;;;;;10.80;9.50;;;;;;;11.78;60.66;98289.13;1223493;75;2893748;-63
2023/11/23 10:46:27;;;;;;;11.15;9.00;;;;;;;12.13;59.11;98283.09;1222589;75;2923234;-66
2023/11/23 10:49:00;;;;;;;9.10;7.85;;;;;;;13.09;56.81;98276.44;1223779;75;2922736;-67
2023/11/23 10:51:37;;;;;;;7.75;6.90;;;;;;;14.19;55.27;98276.81;1223547;75;2928506;-64
2023/11/23 10:54:10;;;;;;;9.30;8.10;;;;;;;13.79;55.13;98268.13;1224136;75;2962389;-67
2023/11/23 10:56:45;;;;;;;12.35;9.75;;;;;;;13.13;55.50;98268.72;1223667;75;2924651;-65
2023/11/23 10:59:21;;;;;;;10.40;8.95;;;;;;;14.48;53.76;98257.34;1223108;75;2918712;-67
2023/11/23 11:01:59;;;;;;;10.25;8.55;;;;;;;13.51;55.66;98245.78;1224649;75;2918621;-66
2023/11/23 11:04:33;;;;;;;10.60;8.80;;;;;;;13.49;53.94;98245.50;1224789;75;2924109;-62
2023/11/23 11:07:11;;;;;;;11.40;9.15;;;;;;;12.55;57.38;98238.13;1224562;75;2922533;-63
2023/11/23 11:09:46;;;;;;;12.50;8.20;;;;;;;12.26;56.58;98231.41;1223942;75;2927407;-63
2023/11/23 11:12:18;;;;;;;7.95;6.75;;;;;;;13.91;54.79;98224.25;1224017;75;2922125;-66
2023/11/23 11:14:54;;;;;;;9.65;7.60;;;;;;;14.61;52.79;98225.91;1224896;75;2928409;-62
2023/11/23 11:17:39;;;;;;;8.75;6.65;;;;;;;15.62;51.67;98218.22;1223470;75;2926999;-63
2023/11/23 11:20:22;;;;;;;10.25;8.30;;;;;;;14.54;51.80;98216.06;1223023;75;2918674;-65
2023/11/23 11:23:04;;;;;;;6.90;5.85;;;;;;;17.09;48.86;98207.31;1223329;75;2930597;-63
2023/11/23 11:25:44;;;;;;;11.20;7.65;;;;;;;16.24;49.02;98201.06;1224060;75;2933678;-62
2023/11/23 11:28:18;;;;;;;9.70;6.70;;;;;;;17.28;47.42;98194.41;1223737;75;2927083;-65
2023/11/23 11:30:50;;;;;;;7.70;6.30;;;;;;;17.90;45.01;98180.31;1223589;75;2930979;-64
2023/11/23 11:33:27;;;;;;;7.75;6.15;;;;;;;15.96;47.05;98177.66;1223622;75;2922122;-62